Time;durP1;ratioP1;P1;durP2;ratioP2;P2;SDS_P1;SDS_P2;PMS_P1;PMS_P2;Temp;Humidity;BMP_temperature;BMP_pressure;BME280_temperature;BME280_humidity;BME280_pressure;Samples;Min_cycle;Max_cycle;Signal;HPM_P1;HPM_P2
2021/07/06 00:00:49;;;;;;;5.95;5.43;;;23.90;98.10;;;;;;5114431;28;20034;-82
2021/07/06 00:03:15;;;;;;;8.13;6.63;;;23.90;98.20;;;;;;5114138;28;20038;-82
2021/07/06 00:05:41;;;;;;;7.15;6.00;;;23.90;98.10;;;;;;5114191;28;20019;-82
2021/07/06 00:08:06;;;;;;;6.18;5.60;;;23.80;98.30;;;;;;5113741;28;20490;-82
2021/07/06 00:10:35;;;;;;;7.55;6.28;;;23.80;98.30;;;;;;5114115;28;20031;-82
2021/07/06 00:13:01;;;;;;;6.10;5.50;;;23.80;98.20;;;;;;5114364;28;20059;-82
2021/07/06 00:15:27;;;;;;;7.47;5.93;;;23.80;98.20;;;;;;5113870;28;20462;-84
2021/07/06 00:17:54;;;;;;;6.78;6.07;;;23.80;98.40;;;;;;5114055;28;20028;-82
2021/07/06 00:20:21;;;;;;;7.47;5.85;;;23.80;98.20;;;;;;5113986;28;20027;-82
2021/07/06 00:22:47;;;;;;;6.65;5.85;;;23.80;98.20;;;;;;5114257;28;20496;-82
2021/07/06 00:25:13;;;;;;;6.78;6.13;;;23.70;98.30;;;;;;5113787;28;20039;-82
2021/07/06 00:27:39;;;;;;;6.70;6.10;;;23.80;98.40;;;;;;5129700;28;20024;-82
2021/07/06 00:30:07;;;;;;;9.07;6.30;;;23.80;98.40;;;;;;5129800;28;20107;-81
2021/07/06 00:32:33;;;;;;;8.25;6.40;;;23.70;98.50;;;;;;5113895;28;20024;-82
2021/07/06 00:34:58;;;;;;;6.30;5.70;;;23.70;98.50;;;;;;5129681;28;20043;-83
2021/07/06 00:37:24;;;;;;;6.30;5.70;;;23.70;98.50;;;;;;5129689;28;20023;-83
2021/07/06 00:39:50;;;;;;;6.93;6.22;;;23.70;98.40;;;;;;5113808;28;20055;-82
2021/07/06 00:42:15;;;;;;;6.78;6.13;;;23.70;98.70;;;;;;5113806;28;20085;-82
2021/07/06 00:44:41;;;;;;;7.10;6.40;;;23.70;98.70;;;;;;5114074;28;20023;-81
2021/07/06 00:47:07;;;;;;;6.75;6.15;;;23.70;98.50;;;;;;5114377;28;20028;-84
2021/07/06 00:49:33;;;;;;;9.93;6.70;;;23.60;98.70;;;;;;5093407;28;20024;-82
2021/07/06 00:51:59;;;;;;;8.15;6.55;;;23.70;98.70;;;;;;5093318;28;20034;-82
2021/07/06 00:54:25;;;;;;;7.70;6.55;;;23.60;98.80;;;;;;5094425;28;20024;-83
2021/07/06 00:56:51;;;;;;;7.45;6.75;;;23.60;98.80;;;;;;5095818;28;20027;-81
2021/07/06 00:59:19;;;;;;;7.05;6.35;;;23.60;98.90;;;;;;5097095;28;20028;-83
2021/07/06 01:01:44;;;;;;;7.25;6.55;;;23.60;98.90;;;;;;5097002;28;20092;-82
2021/07/06 01:04:10;;;;;;;8.40;7.60;;;23.60;98.90;;;;;;5097012;28;20028;-82
2021/07/06 01:06:36;;;;;;;12.30;7.85;;;23.50;98.90;;;;;;5127138;27;20142;-79
2021/07/06 01:09:03;;;;;;;8.65;7.47;;;23.60;98.70;;;;;;5116742;28;20120;-79
2021/07/06 01:11:29;;;;;;;9.25;6.90;;;23.60;98.80;;;;;;5117221;28;20016;-80
2021/07/06 01:13:54;;;;;;;7.43;6.30;;;23.50;98.80;;;;;;5117200;28;20567;-79
2021/07/06 01:16:20;;;;;;;7.40;6.63;;;23.60;98.80;;;;;;5117322;28;20030;-79
2021/07/06 01:18:46;;;;;;;8.30;7.50;;;23.60;98.80;;;;;;5116934;28;20027;-79
2021/07/06 01:21:12;;;;;;;8.00;7.30;;;23.60;98.70;;;;;;5117345;28;20511;-81
2021/07/06 01:23:38;;;;;;;8.48;6.53;;;23.60;98.70;;;;;;5117181;28;20024;-82
2021/07/06 01:26:07;;;;;;;9.30;6.72;;;23.60;98.80;;;;;;5117000;28;20080;-81
2021/07/06 01:28:34;;;;;;;7.50;6.80;;;23.60;98.80;;;;;;5116743;28;20036;-81
2021/07/06 01:30:59;;;;;;;7.10;6.40;;;23.60;98.80;;;;;;5116871;28;20016;-81
2021/07/06 01:33:27;;;;;;;7.72;6.20;;;23.60;98.80;;;;;;5115490;28;20039;-82
2021/07/06 01:36:01;;;;;;;7.53;6.80;;;23.60;98.80;;;;;;5116752;28;20012;-81
2021/07/06 01:38:27;;;;;;;7.07;6.38;;;23.70;98.70;;;;;;5115410;28;20027;-81
2021/07/06 01:40:53;;;;;;;6.80;6.10;;;23.60;98.70;;;;;;5116998;28;20024;-81
2021/07/06 01:43:19;;;;;;;9.45;6.60;;;23.70;98.70;;;;;;5116902;28;20047;-82
2021/07/06 01:45:45;;;;;;;9.07;6.53;;;23.60;98.80;;;;;;5116627;28;20466;-82
2021/07/06 01:48:11;;;;;;;7.13;6.43;;;23.60;98.70;;;;;;5116358;28;20027;-81
2021/07/06 01:50:39;;;;;;;7.47;6.70;;;23.60;98.80;;;;;;5116675;28;20030;-81
2021/07/06 01:53:10;;;;;;;8.80;6.40;;;23.60;98.60;;;;;;5116735;28;20020;-81
2021/07/06 01:55:41;;;;;;;6.63;6.03;;;23.60;98.80;;;;;;5116415;28;20020;-81
2021/07/06 01:58:10;;;;;;;7.18;6.47;;;23.60;98.80;;;;;;5116338;28;20019;-82
2021/07/06 02:00:42;;;;;;;6.78;5.97;;;23.50;98.90;;;;;;5116427;28;20032;-82
2021/07/06 02:03:09;;;;;;;6.88;6.05;;;23.60;98.90;;;;;;5132707;27;20051;-86
2021/07/06 02:05:46;;;;;;;6.90;6.25;;;23.50;98.80;;;;;;5131741;27;20024;-80
2021/07/06 02:08:15;;;;;;;11.23;6.70;;;23.60;98.80;;;;;;5115952;28;20043;-80
2021/07/06 02:10:42;;;;;;;7.07;5.93;;;23.60;98.80;;;;;;5116327;28;20486;-79
2021/07/06 02:13:11;;;;;;;6.93;6.22;;;23.50;98.70;;;;;;5116120;28;20031;-79
2021/07/06 02:15:37;;;;;;;7.15;6.45;;;23.60;98.80;;;;;;5115815;28;20026;-79
2021/07/06 02:18:04;;;;;;;6.53;5.90;;;23.50;98.90;;;;;;5115876;28;20106;-80
2021/07/06 02:20:29;;;;;;;7.85;6.40;;;23.50;98.80;;;;;;5116382;28;20020;-79
2021/07/06 02:22:55;;;;;;;7.57;6.80;;;23.60;98.80;;;;;;5115887;28;20072;-79
2021/07/06 02:25:22;;;;;;;7.22;6.43;;;23.50;98.90;;;;;;5115768;28;20024;-80
2021/07/06 02:27:48;;;;;;;7.82;6.72;;;23.50;99.00;;;;;;5115730;28;20035;-80
2021/07/06 02:30:17;;;;;;;6.90;5.93;;;23.50;99.00;;;;;;5115651;28;20024;-80
2021/07/06 02:32:43;;;;;;;8.82;6.97;;;23.50;99.00;;;;;;5115838;28;20031;-79
2021/07/06 02:35:10;;;;;;;7.55;6.82;;;23.50;99.00;;;;;;5115604;28;20024;-79
2021/07/06 07:41:21;;;;;;;14.00;11.48;;;25.50;98.30;;;;;;5072042;28;20364;-89
2021/07/06 07:43:53;;;;;;;15.07;11.90;;;25.50;98.50;;;;;;5069697;28;20029;-88
2021/07/06 07:46:18;;;;;;;16.42;12.60;;;25.60;98.80;;;;;;5071043;28;20025;-87
2021/07/06 07:48:45;;;;;;;14.13;12.63;;;25.70;98.70;;;;;;5070083;28;20024;-85
2021/07/06 07:51:11;;;;;;;16.75;13.23;;;25.80;98.70;;;;;;5071375;28;20016;-85
2021/07/06 07:53:36;;;;;;;15.27;12.40;;;25.90;98.30;;;;;;5071506;28;20100;-90
2021/07/06 07:56:02;;;;;;;15.30;12.52;;;25.90;97.70;;;;;;5069716;28;20028;-87
2021/07/06 18:45:58;;;;;;;5.03;4.28;;;24.70;98.20;;;;;;5166585;27;20372;-90
2021/07/06 18:48:24;;;;;;;6.03;4.45;;;24.60;98.50;;;;;;5131822;27;20034;-92
2021/07/06 18:50:50;;;;;;;5.05;4.55;;;24.60;98.70;;;;;;5131805;27;20061;-92
2021/07/06 18:53:23;;;;;;;8.48;4.80;;;24.60;98.60;;;;;;5131577;27;20054;-95
2021/07/06 18:55:49;;;;;;;5.85;5.25;;;24.60;98.70;;;;;;5131622;27;20030;-94
2021/07/06 18:58:15;;;;;;;6.28;4.55;;;24.60;99.00;;;;;;5131526;27;20110;-92
2021/07/06 19:00:41;;;;;;;5.82;5.22;;;24.60;98.90;;;;;;5131448;27;20031;-91
2021/07/06 19:03:08;;;;;;;5.03;4.60;;;24.60;99.00;;;;;;5131292;28;20072;-89
2021/07/06 19:05:38;;;;;;;4.88;4.40;;;24.60;98.60;;;;;;5131033;27;20030;-88
2021/07/06 19:08:04;;;;;;;4.78;4.38;;;24.60;98.00;;;;;;5131012;27;20023;-89
2021/07/06 19:10:59;;;;;;;4.57;4.03;;;24.60;97.50;;;;;;5130929;27;20023;-90
2021/07/06 19:13:27;;;;;;;5.28;4.15;;;24.60;96.90;;;;;;5129844;28;20030;-89
